sensor_id;sensor_type;location;lat;lon;timestamp;pressure;altitude;pressure_sealevel;temperature;humidity
22753;BME280;11543;43.144;24.684;2023-04-06T00:01:02;98591.22;;;6.56;63.86
22753;BME280;11543;43.144;24.684;2023-04-06T00:03:28;98604.13;;;6.51;62.44
22753;BME280;11543;43.144;24.684;2023-04-06T00:05:53;98578.81;;;6.35;63.03
22753;BME280;11543;43.144;24.684;2023-04-06T00:08:19;98582.78;;;6.41;63.56
22753;BME280;11543;43.144;24.684;2023-04-06T00:10:46;98579.25;;;6.41;63.52
22753;BME280;11543;43.144;24.684;2023-04-06T00:13:12;98599.94;;;6.58;63.29
22753;BME280;11543;43.144;24.684;2023-04-06T00:15:38;98596.28;;;6.59;63.70
22753;BME280;11543;43.144;24.684;2023-04-06T00:18:03;98597.69;;;6.63;63.58
22753;BME280;11543;43.144;24.684;2023-04-06T00:20:29;98600.09;;;6.66;63.91
22753;BME280;11543;43.144;24.684;2023-04-06T00:22:55;98590.13;;;6.68;63.89
22753;BME280;11543;43.144;24.684;2023-04-06T00:25:21;98598.84;;;6.70;64.18
22753;BME280;11543;43.144;24.684;2023-04-06T00:27:46;98591.81;;;6.69;63.87
22753;BME280;11543;43.144;24.684;2023-04-06T00:30:12;98569.34;;;6.62;64.00
22753;BME280;11543;43.144;24.684;2023-04-06T00:32:37;98569.63;;;6.59;63.09
22753;BME280;11543;43.144;24.684;2023-04-06T00:35:03;98567.94;;;6.58;63.61
22753;BME280;11543;43.144;24.684;2023-04-06T00:37:30;98568.38;;;6.63;63.36
22753;BME280;11543;43.144;24.684;2023-04-06T00:39:56;98584.13;;;6.76;63.62
22753;BME280;11543;43.144;24.684;2023-04-06T00:42:22;98571.06;;;6.72;63.81
22753;BME280;11543;43.144;24.684;2023-04-06T00:45:00;98568.53;;;6.81;64.07
22753;BME280;11543;43.144;24.684;2023-04-06T00:47:26;98563.34;;;6.79;64.10
22753;BME280;11543;43.144;24.684;2023-04-06T00:49:53;98574.72;;;6.81;64.11
22753;BME280;11543;43.144;24.684;2023-04-06T00:52:19;98544.41;;;6.72;64.19
22753;BME280;11543;43.144;24.684;2023-04-06T00:54:45;98569.69;;;6.88;64.28
22753;BME280;11543;43.144;24.684;2023-04-06T00:57:14;98536.25;;;6.74;63.83
22753;BME280;11543;43.144;24.684;2023-04-06T00:59:40;98537.94;;;6.75;63.80
22753;BME280;11543;43.144;24.684;2023-04-06T01:02:06;98554.09;;;6.83;63.63
22753;BME280;11543;43.144;24.684;2023-04-06T01:04:32;98547.22;;;6.81;63.51
22753;BME280;11543;43.144;24.684;2023-04-06T01:06:58;98559.00;;;6.88;63.50
22753;BME280;11543;43.144;24.684;2023-04-06T01:09:23;98535.97;;;6.77;63.88
22753;BME280;11543;43.144;24.684;2023-04-06T01:11:49;98535.84;;;6.79;63.88
22753;BME280;11543;43.144;24.684;2023-04-06T01:14:15;98527.56;;;6.72;63.55
22753;BME280;11543;43.144;24.684;2023-04-06T01:16:41;98535.72;;;6.80;63.93
22753;BME280;11543;43.144;24.684;2023-04-06T01:19:13;98531.50;;;6.78;63.56
22753;BME280;11543;43.144;24.684;2023-04-06T01:21:39;98538.81;;;6.85;63.41
22753;BME280;11543;43.144;24.684;2023-04-06T01:24:06;98532.19;;;6.70;63.50
22753;BME280;11543;43.144;24.684;2023-04-06T01:26:32;98533.75;;;6.72;63.42
22753;BME280;11543;43.144;24.684;2023-04-06T01:28:58;98524.75;;;6.64;63.19
22753;BME280;11543;43.144;24.684;2023-04-06T01:31:24;98516.88;;;6.53;63.45
22753;BME280;11543;43.144;24.684;2023-04-06T01:33:50;98516.75;;;6.54;63.87
22753;BME280;11543;43.144;24.684;2023-04-06T01:36:16;98519.69;;;6.61;63.70
22753;BME280;11543;43.144;24.684;2023-04-06T01:38:41;98502.72;;;6.52;64.19
22753;BME280;11543;43.144;24.684;2023-04-06T01:41:08;98516.03;;;6.62;64.17
22753;BME280;11543;43.144;24.684;2023-04-06T01:43:34;98513.66;;;6.59;64.16
22753;BME280;11543;43.144;24.684;2023-04-06T01:46:00;98508.47;;;6.57;64.08
22753;BME280;11543;43.144;24.684;2023-04-06T01:48:26;98502.09;;;6.29;63.27
22753;BME280;11543;43.144;24.684;2023-04-06T01:50:52;98514.06;;;6.45;63.92
22753;BME280;11543;43.144;24.684;2023-04-06T01:53:18;98515.16;;;6.32;63.53
22753;BME280;11543;43.144;24.684;2023-04-06T01:55:43;98518.22;;;6.28;63.34
22753;BME280;11543;43.144;24.684;2023-04-06T01:58:09;98514.97;;;6.15;63.30
22753;BME280;11543;43.144;24.684;2023-04-06T02:00:35;98491.03;;;5.94;63.57
22753;BME280;11543;43.144;24.684;2023-04-06T02:03:01;98482.47;;;5.90;63.80
22753;BME280;11543;43.144;24.684;2023-04-06T02:05:27;98489.41;;;5.82;64.19
22753;BME280;11543;43.144;24.684;2023-04-06T02:07:53;98489.16;;;5.85;64.51
22753;BME280;11543;43.144;24.684;2023-04-06T02:10:18;98496.50;;;5.92;65.43
22753;BME280;11543;43.144;24.684;2023-04-06T02:12:44;98499.59;;;5.97;65.33
22753;BME280;11543;43.144;24.684;2023-04-06T02:15:10;98491.78;;;6.05;65.62
22753;BME280;11543;43.144;24.684;2023-04-06T02:17:35;98500.53;;;6.17;65.28
22753;BME280;11543;43.144;24.684;2023-04-06T02:20:01;98499.38;;;6.10;63.76
22753;BME280;11543;43.144;24.684;2023-04-06T02:22:26;98488.09;;;5.97;63.42
22753;BME280;11543;43.144;24.684;2023-04-06T02:24:52;98497.44;;;6.12;64.14
22753;BME280;11543;43.144;24.684;2023-04-06T02:27:17;98499.53;;;6.09;63.37
22753;BME280;11543;43.144;24.684;2023-04-06T02:29:43;98485.88;;;6.02;64.04
22753;BME280;11543;43.144;24.684;2023-04-06T02:32:08;98484.47;;;5.98;63.30
22753;BME280;11543;43.144;24.684;2023-04-06T02:34:34;98484.16;;;5.91;63.29
22753;BME280;11543;43.144;24.684;2023-04-06T02:37:00;98483.56;;;5.88;63.39
22753;BME280;11543;43.144;24.684;2023-04-06T02:39:25;98501.34;;;6.08;63.61
22753;BME280;11543;43.144;24.684;2023-04-06T02:41:51;98496.25;;;6.05;63.83
22753;BME280;11543;43.144;24.684;2023-04-06T02:44:17;98500.53;;;6.17;63.44
22753;BME280;11543;43.144;24.684;2023-04-06T02:46:42;98510.31;;;6.07;62.99
22753;BME280;11543;43.144;24.684;2023-04-06T02:49:08;98508.34;;;6.09;62.70
22753;BME280;11543;43.144;24.684;2023-04-06T02:51:33;98498.47;;;6.00;62.41
22753;BME280;11543;43.144;24.684;2023-04-06T02:53:59;98508.34;;;6.09;62.61
22753;BME280;11543;43.144;24.684;2023-04-06T02:56:24;98498.47;;;6.00;62.29
22753;BME280;11543;43.144;24.684;2023-04-06T02:58:51;98494.84;;;6.01;62.12
22753;BME280;11543;43.144;24.684;2023-04-06T03:01:17;98507.19;;;6.02;61.90
22753;BME280;11543;43.144;24.684;2023-04-06T03:03:42;98501.84;;;6.02;62.29
22753;BME280;11543;43.144;24.684;2023-04-06T03:06:08;98493.44;;;5.97;61.67
22753;BME280;11543;43.144;24.684;2023-04-06T03:08:34;98491.75;;;5.96;62.09
22753;BME280;11543;43.144;24.684;2023-04-06T03:10:59;98500.72;;;5.95;61.94
22753;BME280;11543;43.144;24.684;2023-04-06T03:13:25;98510.88;;;6.11;62.81
22753;BME280;11543;43.144;24.684;2023-04-06T03:15:50;98503.28;;;6.06;62.24
22753;BME280;11543;43.144;24.684;2023-04-06T03:18:21;98498.69;;;6.08;62.35
22753;BME280;11543;43.144;24.684;2023-04-06T03:20:47;98502.91;;;6.20;62.74
22753;BME280;11543;43.144;24.684;2023-04-06T03:23:13;98522.72;;;6.27;62.70
22753;BME280;11543;43.144;24.684;2023-04-06T03:25:38;98500.81;;;6.14;61.60
22753;BME280;11543;43.144;24.684;2023-04-06T03:28:05;98499.66;;;6.07;61.27
22753;BME280;11543;43.144;24.684;2023-04-06T03:30:30;98519.59;;;6.22;62.20
22753;BME280;11543;43.144;24.684;2023-04-06T03:32:56;98512.56;;;6.12;61.34
22753;BME280;11543;43.144;24.684;2023-04-06T03:35:21;98515.53;;;6.18;61.84
22753;BME280;11543;43.144;24.684;2023-04-06T03:37:47;98519.88;;;6.19;61.70
22753;BME280;11543;43.144;24.684;2023-04-06T03:40:12;98517.31;;;6.08;61.42
22753;BME280;11543;43.144;24.684;2023-04-06T03:42:38;98506.41;;;6.11;61.59
22753;BME280;11543;43.144;24.684;2023-04-06T03:45:04;98512.31;;;6.24;61.55
22753;BME280;11543;43.144;24.684;2023-04-06T03:47:29;98523.25;;;6.21;61.79
22753;BME280;11543;43.144;24.684;2023-04-06T03:49:55;98519.47;;;6.24;61.85
22753;BME280;11543;43.144;24.684;2023-04-06T03:52:21;98504.88;;;6.18;62.07
22753;BME280;11543;43.144;24.684;2023-04-06T03:54:48;98517.66;;;6.24;61.61
22753;BME280;11543;43.144;24.684;2023-04-06T03:57:14;98519.03;;;6.19;61.44
22753;BME280;11543;43.144;24.684;2023-04-06T03:59:39;98510.22;;;6.18;61.66
22753;BME280;11543;43.144;24.684;2023-04-06T04:02:05;98497.69;;;6.09;61.43
22753;BME280;11543;43.144;24.684;2023-04-06T04:04:31;98498.91;;;6.05;61.80
22753;BME280;11543;43.144;24.684;2023-04-06T04:06:56;98503.81;;;6.00;61.76
22753;BME280;11543;43.144;24.684;2023-04-06T04:09:22;98505.59;;;5.90;61.58
22753;BME280;11543;43.144;24.684;2023-04-06T04:11:47;98519.84;;;5.89;61.05
22753;BME280;11543;43.144;24.684;2023-04-06T04:14:13;98516.41;;;5.98;61.64
22753;BME280;11543;43.144;24.684;2023-04-06T04:16:39;98500.00;;;5.93;62.59
22753;BME280;11543;43.144;24.684;2023-04-06T04:19:05;98504.84;;;5.88;61.55
22753;BME280;11543;43.144;24.684;2023-04-06T04:21:31;98505.38;;;5.82;61.83
22753;BME280;11543;43.144;24.684;2023-04-06T04:23:57;98510.34;;;5.65;62.13
22753;BME280;11543;43.144;24.684;2023-04-06T04:26:22;98500.91;;;5.31;62.52
22753;BME280;11543;43.144;24.684;2023-04-06T04:28:49;98506.75;;;5.25;62.94
22753;BME280;11543;43.144;24.684;2023-04-06T04:31:14;98491.13;;;5.31;63.31
22753;BME280;11543;43.144;24.684;2023-04-06T04:33:43;98520.94;;;5.56;63.37
22753;BME280;11543;43.144;24.684;2023-04-06T04:36:10;98504.66;;;5.49;63.20
22753;BME280;11543;43.144;24.684;2023-04-06T04:38:35;98501.28;;;5.47;62.83
22753;BME280;11543;43.144;24.684;2023-04-06T04:41:01;98520.69;;;5.59;62.88
22753;BME280;11543;43.144;24.684;2023-04-06T04:43:27;98512.63;;;5.70;63.72
22753;BME280;11543;43.144;24.684;2023-04-06T04:45:52;98503.25;;;5.75;63.65
22753;BME280;11543;43.144;24.684;2023-04-06T04:48:18;98509.31;;;5.57;62.90
22753;BME280;11543;43.144;24.684;2023-04-06T04:50:43;98509.56;;;5.74;63.13
22753;BME280;11543;43.144;24.684;2023-04-06T04:53:09;98502.72;;;5.51;63.20
22753;BME280;11543;43.144;24.684;2023-04-06T04:55:35;98516.84;;;5.72;64.29
22753;BME280;11543;43.144;24.684;2023-04-06T04:58:03;98494.91;;;5.59;62.97
22753;BME280;11543;43.144;24.684;2023-04-06T05:00:29;98510.19;;;5.88;64.10
22753;BME280;11543;43.144;24.684;2023-04-06T05:02:56;98507.28;;;5.70;63.46
22753;BME280;11543;43.144;24.684;2023-04-06T05:05:22;98507.06;;;5.83;63.57
22753;BME280;11543;43.144;24.684;2023-04-06T05:07:47;98508.34;;;5.88;63.82
22753;BME280;11543;43.144;24.684;2023-04-06T05:10:13;98510.50;;;5.94;63.55
22753;BME280;11543;43.144;24.684;2023-04-06T05:12:39;98515.56;;;5.97;63.46
22753;BME280;11543;43.144;24.684;2023-04-06T05:15:05;98497.09;;;6.05;63.28
22753;BME280;11543;43.144;24.684;2023-04-06T05:17:31;98514.47;;;6.00;62.91
22753;BME280;11543;43.144;24.684;2023-04-06T05:19:56;98508.25;;;5.90;63.01
22753;BME280;11543;43.144;24.684;2023-04-06T05:22:22;98509.56;;;5.74;62.92
22753;BME280;11543;43.144;24.684;2023-04-06T05:24:48;98496.44;;;5.83;63.18
22753;BME280;11543;43.144;24.684;2023-04-06T05:27:13;98486.03;;;5.80;63.42
22753;BME280;11543;43.144;24.684;2023-04-06T05:29:39;98487.72;;;5.81;63.04
22753;BME280;11543;43.144;24.684;2023-04-06T05:32:05;98502.66;;;5.93;63.15
22753;BME280;11543;43.144;24.684;2023-04-06T05:34:31;98503.38;;;5.95;63.05
22753;BME280;11543;43.144;24.684;2023-04-06T05:36:57;98503.03;;;6.09;63.58
22753;BME280;11543;43.144;24.684;2023-04-06T05:39:22;98494.25;;;6.28;63.60
22753;BME280;11543;43.144;24.684;2023-04-06T05:41:49;98493.59;;;6.45;63.88
22753;BME280;11543;43.144;24.684;2023-04-06T05:44:14;98474.50;;;6.40;62.68
22753;BME280;11543;43.144;24.684;2023-04-06T05:46:40;98466.78;;;6.47;63.03
22753;BME280;11543;43.144;24.684;2023-04-06T05:49:15;98491.34;;;6.50;61.17
22753;BME280;11543;43.144;24.684;2023-04-06T05:51:41;98468.59;;;6.27;61.61
22753;BME280;11543;43.144;24.684;2023-04-06T05:54:06;98487.50;;;6.14;61.63
22753;BME280;11543;43.144;24.684;2023-04-06T05:56:33;98496.19;;;6.16;61.76
22753;BME280;11543;43.144;24.684;2023-04-06T05:58:58;98476.91;;;6.03;61.31
22753;BME280;11543;43.144;24.684;2023-04-06T06:01:24;98508.25;;;6.20;61.76
22753;BME280;11543;43.144;24.684;2023-04-06T06:03:49;98476.63;;;6.06;60.98
22753;BME280;11543;43.144;24.684;2023-04-06T06:06:15;98493.25;;;6.19;60.67
22753;BME280;11543;43.144;24.684;2023-04-06T06:08:41;98479.75;;;6.11;61.25
22753;BME280;11543;43.144;24.684;2023-04-06T06:11:09;98491.53;;;6.09;61.47
22753;BME280;11543;43.144;24.684;2023-04-06T06:16:11;98463.44;;;5.95;60.38
22753;BME280;11543;43.144;24.684;2023-04-06T06:18:39;98476.91;;;6.03;60.22
22753;BME280;11543;43.144;24.684;2023-04-06T06:21:04;98467.94;;;6.04;61.25
22753;BME280;11543;43.144;24.684;2023-04-06T06:23:30;98474.75;;;6.27;60.91
22753;BME280;11543;43.144;24.684;2023-04-06T06:25:56;98479.53;;;6.24;60.08
22753;BME280;11543;43.144;24.684;2023-04-06T06:28:23;98459.59;;;6.18;59.94
22753;BME280;11543;43.144;24.684;2023-04-06T06:30:50;98477.09;;;6.11;59.82
22753;BME280;11543;43.144;24.684;2023-04-06T06:33:16;98463.94;;;6.19;60.61
22753;BME280;11543;43.144;24.684;2023-04-06T06:35:42;98473.63;;;6.20;60.59
22753;BME280;11543;43.144;24.684;2023-04-06T06:38:07;98455.97;;;6.19;60.52
22753;BME280;11543;43.144;24.684;2023-04-06T06:40:33;98480.09;;;6.27;59.97
22753;BME280;11543;43.144;24.684;2023-04-06T06:42:59;98478.56;;;6.34;60.37
22753;BME280;11543;43.144;24.684;2023-04-06T06:45:24;98491.59;;;6.37;59.31
22753;BME280;11543;43.144;24.684;2023-04-06T06:47:51;98484.59;;;6.46;59.26
22753;BME280;11543;43.144;24.684;2023-04-06T06:50:16;98480.41;;;6.44;59.55
22753;BME280;11543;43.144;24.684;2023-04-06T06:52:42;98486.84;;;6.51;59.51
22753;BME280;11543;43.144;24.684;2023-04-06T06:55:09;98482.66;;;6.58;59.74
22753;BME280;11543;43.144;24.684;2023-04-06T06:57:35;98496.28;;;6.74;58.68
22753;BME280;11543;43.144;24.684;2023-04-06T07:00:00;98506.25;;;6.82;59.05
22753;BME280;11543;43.144;24.684;2023-04-06T07:02:26;98492.19;;;6.70;58.87
22753;BME280;11543;43.144;24.684;2023-04-06T07:04:51;98490.78;;;6.56;57.91
22753;BME280;11543;43.144;24.684;2023-04-06T07:07:17;98503.41;;;6.64;58.42
22753;BME280;11543;43.144;24.684;2023-04-06T07:09:43;98500.63;;;6.75;58.42
22753;BME280;11543;43.144;24.684;2023-04-06T07:12:08;98485.19;;;6.69;59.16
22753;BME280;11543;43.144;24.684;2023-04-06T07:14:34;98478.31;;;6.76;58.04
22753;BME280;11543;43.144;24.684;2023-04-06T07:16:59;98478.19;;;6.68;57.47
22753;BME280;11543;43.144;24.684;2023-04-06T07:19:25;98477.34;;;6.77;59.00
22753;BME280;11543;43.144;24.684;2023-04-06T07:21:50;98481.53;;;6.89;57.82
22753;BME280;11543;43.144;24.684;2023-04-06T07:24:16;98465.00;;;6.76;57.85
22753;BME280;11543;43.144;24.684;2023-04-06T07:26:42;98488.72;;;6.98;57.97
22753;BME280;11543;43.144;24.684;2023-04-06T07:29:07;98488.28;;;6.93;57.61
22753;BME280;11543;43.144;24.684;2023-04-06T07:31:33;98486.59;;;6.92;58.15
22753;BME280;11543;43.144;24.684;2023-04-06T07:34:00;98483.81;;;7.03;57.80
22753;BME280;11543;43.144;24.684;2023-04-06T07:36:26;98475.66;;;7.05;56.94
22753;BME280;11543;43.144;24.684;2023-04-06T07:38:52;98480.72;;;7.08;57.54
22753;BME280;11543;43.144;24.684;2023-04-06T07:41:17;98467.81;;;7.03;57.73
22753;BME280;11543;43.144;24.684;2023-04-06T07:43:45;98464.56;;;7.10;57.64
22753;BME280;11543;43.144;24.684;2023-04-06T07:46:11;98471.16;;;7.25;58.35
22753;BME280;11543;43.144;24.684;2023-04-06T07:48:36;98456.53;;;7.29;57.04
22753;BME280;11543;43.144;24.684;2023-04-06T07:51:03;98468.56;;;7.43;58.33
22753;BME280;11543;43.144;24.684;2023-04-06T07:53:29;98447.50;;;7.49;56.73
22753;BME280;11543;43.144;24.684;2023-04-06T07:55:57;98446.03;;;7.64;56.62
22753;BME280;11543;43.144;24.684;2023-04-06T07:58:40;98459.19;;;7.76;58.25
22753;BME280;11543;43.144;24.684;2023-04-06T08:01:06;98456.66;;;7.84;56.65
22753;BME280;11543;43.144;24.684;2023-04-06T08:03:34;98469.78;;;8.05;57.22
22753;BME280;11543;43.144;24.684;2023-04-06T08:06:00;98471.69;;;8.12;57.46
22753;BME280;11543;43.144;24.684;2023-04-06T08:08:25;98454.00;;;8.11;55.77
22753;BME280;11543;43.144;24.684;2023-04-06T08:10:51;98460.41;;;8.18;57.10
22753;BME280;11543;43.144;24.684;2023-04-06T08:13:16;98447.41;;;8.33;57.65
22753;BME280;11543;43.144;24.684;2023-04-06T08:15:42;98445.91;;;8.48;57.75
22753;BME280;11543;43.144;24.684;2023-04-06T08:18:08;98445.06;;;8.48;55.07
22753;BME280;11543;43.144;24.684;2023-04-06T08:20:34;98451.19;;;8.58;54.72
22753;BME280;11543;43.144;24.684;2023-04-06T08:23:01;98455.34;;;8.70;55.77
22753;BME280;11543;43.144;24.684;2023-04-06T08:25:26;98448.59;;;8.66;54.94
22753;BME280;11543;43.144;24.684;2023-04-06T08:27:52;98452.13;;;8.84;54.25
22753;BME280;11543;43.144;24.684;2023-04-06T08:30:18;98442.19;;;8.94;54.69
22753;BME280;11543;43.144;24.684;2023-04-06T08:32:45;98449.66;;;9.09;55.18
22753;BME280;11543;43.144;24.684;2023-04-06T08:35:12;98435.59;;;9.07;54.23
22753;BME280;11543;43.144;24.684;2023-04-06T08:37:38;98434.97;;;9.13;52.03
22753;BME280;11543;43.144;24.684;2023-04-06T08:40:04;98433.41;;;9.28;52.30
22753;BME280;11543;43.144;24.684;2023-04-06T08:42:32;98437.66;;;9.39;52.56
22753;BME280;11543;43.144;24.684;2023-04-06T08:45:01;98434.44;;;9.35;52.06
22753;BME280;11543;43.144;24.684;2023-04-06T08:47:27;98431.09;;;9.33;51.59
22753;BME280;11543;43.144;24.684;2023-04-06T08:49:53;98447.50;;;9.56;53.51
22753;BME280;11543;43.144;24.684;2023-04-06T08:52:19;98445.09;;;9.79;52.00
22753;BME280;11543;43.144;24.684;2023-04-06T08:54:45;98440.09;;;9.84;51.67
22753;BME280;11543;43.144;24.684;2023-04-06T08:57:12;98447.53;;;9.98;50.75
22753;BME280;11543;43.144;24.684;2023-04-06T08:59:40;98428.63;;;10.00;50.96
22753;BME280;11543;43.144;24.684;2023-04-06T09:02:09;98432.75;;;10.28;50.26
22753;BME280;11543;43.144;24.684;2023-04-06T09:04:43;98415.50;;;10.23;50.65
22753;BME280;11543;43.144;24.684;2023-04-06T09:07:09;98440.16;;;10.34;50.50
22753;BME280;11543;43.144;24.684;2023-04-06T09:09:35;98426.63;;;10.44;49.35
22753;BME280;11543;43.144;24.684;2023-04-06T09:12:01;98411.16;;;10.38;48.31
22753;BME280;11543;43.144;24.684;2023-04-06T09:14:37;98433.53;;;10.55;48.07
22753;BME280;11543;43.144;24.684;2023-04-06T09:17:04;98410.53;;;10.44;49.24
22753;BME280;11543;43.144;24.684;2023-04-06T09:19:30;98410.22;;;10.63;50.29
22753;BME280;11543;43.144;24.684;2023-04-06T09:22:06;98412.25;;;10.69;47.38
22753;BME280;11543;43.144;24.684;2023-04-06T09:24:49;98406.22;;;10.67;48.54
22753;BME280;11543;43.144;24.684;2023-04-06T09:27:15;98403.69;;;10.66;47.96
22753;BME280;11543;43.144;24.684;2023-04-06T09:29:42;98393.63;;;10.60;48.13
22753;BME280;11543;43.144;24.684;2023-04-06T09:32:09;98403.19;;;10.78;48.66
22753;BME280;11543;43.144;24.684;2023-04-06T09:34:41;98385.59;;;10.84;47.25
22753;BME280;11543;43.144;24.684;2023-04-06T09:37:18;98402.53;;;10.93;47.17
22753;BME280;11543;43.144;24.684;2023-04-06T09:39:44;98387.75;;;11.05;49.37
22753;BME280;11543;43.144;24.684;2023-04-06T09:42:12;98395.13;;;11.19;47.34
22753;BME280;11543;43.144;24.684;2023-04-06T09:44:48;98398.81;;;11.34;46.78
22753;BME280;11543;43.144;24.684;2023-04-06T09:47:14;98379.69;;;11.29;46.29
22753;BME280;11543;43.144;24.684;2023-04-06T09:49:43;98385.38;;;11.42;46.79
22753;BME280;11543;43.144;24.684;2023-04-06T09:52:11;98393.06;;;11.54;46.75
22753;BME280;11543;43.144;24.684;2023-04-06T09:54:37;98390.34;;;11.62;46.60
22753;BME280;11543;43.144;24.684;2023-04-06T09:57:17;98371.47;;;11.86;47.20
22753;BME280;11543;43.144;24.684;2023-04-06T09:59:53;98372.72;;;12.06;45.67
22753;BME280;11543;43.144;24.684;2023-04-06T10:02:35;98376.97;;;12.32;45.84
22753;BME280;11543;43.144;24.684;2023-04-06T10:05:19;98371.38;;;12.64;45.35
22753;BME280;11543;43.144;24.684;2023-04-06T10:07:48;98371.31;;;12.72;43.06
22753;BME280;11543;43.144;24.684;2023-04-06T10:10:16;98358.22;;;12.69;43.43
22753;BME280;11543;43.144;24.684;2023-04-06T10:12:41;98356.69;;;12.90;41.75
22753;BME280;11543;43.144;24.684;2023-04-06T10:15:10;98342.28;;;12.83;42.82
22753;BME280;11543;43.144;24.684;2023-04-06T10:17:36;98359.47;;;12.82;44.42
22753;BME280;11543;43.144;24.684;2023-04-06T10:23:12;98374.09;;;13.25;42.30
22753;BME280;11543;43.144;24.684;2023-04-06T10:25:52;98356.41;;;13.07;43.51
22753;BME280;11543;43.144;24.684;2023-04-06T10:28:19;98360.66;;;13.02;42.59
22753;BME280;11543;43.144;24.684;2023-04-06T10:30:45;98349.69;;;13.03;44.25
22753;BME280;11543;43.144;24.684;2023-04-06T10:33:20;98343.03;;;13.14;44.72
22753;BME280;11543;43.144;24.684;2023-04-06T10:35:46;98362.97;;;13.28;44.13
22753;BME280;11543;43.144;24.684;2023-04-06T10:38:12;98360.66;;;13.39;43.72
22753;BME280;11543;43.144;24.684;2023-04-06T10:40:41;98351.25;;;13.35;41.48
22753;BME280;11543;43.144;24.684;2023-04-06T10:43:14;98358.25;;;13.07;41.08
22753;BME280;11543;43.144;24.684;2023-04-06T10:45:44;98355.31;;;12.94;41.52
22753;BME280;11543;43.144;24.684;2023-04-06T10:48:14;98348.13;;;13.09;40.70
22753;BME280;11543;43.144;24.684;2023-04-06T10:50:44;98365.03;;;13.03;40.16
22753;BME280;11543;43.144;24.684;2023-04-06T10:53:10;98335.59;;;12.79;42.18
22753;BME280;11543;43.144;24.684;2023-04-06T10:55:38;98326.56;;;12.71;41.42
22753;BME280;11543;43.144;24.684;2023-04-06T10:58:07;98354.00;;;12.90;40.78
22753;BME280;11543;43.144;24.684;2023-04-06T11:00:34;98343.59;;;12.87;40.86
22753;BME280;11543;43.144;24.684;2023-04-06T11:03:06;98356.63;;;12.98;41.14
22753;BME280;11543;43.144;24.684;2023-04-06T11:05:31;98338.56;;;12.84;41.14
22753;BME280;11543;43.144;24.684;2023-04-06T11:07:57;98339.53;;;12.91;41.97
22753;BME280;11543;43.144;24.684;2023-04-06T11:10:23;98349.56;;;12.97;40.60
22753;BME280;11543;43.144;24.684;2023-04-06T11:12:53;98329.03;;;12.58;39.92
22753;BME280;11543;43.144;24.684;2023-04-06T11:15:19;98328.69;;;12.38;39.84
22753;BME280;11543;43.144;24.684;2023-04-06T11:17:45;98349.97;;;12.48;41.14
22753;BME280;11543;43.144;24.684;2023-04-06T11:20:11;98347.56;;;12.53;40.34
22753;BME280;11543;43.144;24.684;2023-04-06T11:22:48;98336.28;;;12.35;40.96
22753;BME280;11543;43.144;24.684;2023-04-06T11:25:14;98325.75;;;12.25;41.41
22753;BME280;11543;43.144;24.684;2023-04-06T11:27:42;98330.25;;;12.56;41.49
22753;BME280;11543;43.144;24.684;2023-04-06T11:30:09;98320.66;;;12.76;41.15
22753;BME280;11543;43.144;24.684;2023-04-06T11:32:45;98314.56;;;12.97;40.80
22753;BME280;11543;43.144;24.684;2023-04-06T11:35:22;98325.16;;;13.21;41.22
22753;BME280;11543;43.144;24.684;2023-04-06T11:37:49;98321.06;;;13.25;40.25
22753;BME280;11543;43.144;24.684;2023-04-06T11:40:15;98330.25;;;13.31;38.19
22753;BME280;11543;43.144;24.684;2023-04-06T11:42:52;98334.06;;;13.36;39.68
22753;BME280;11543;43.144;24.684;2023-04-06T11:45:18;98317.78;;;13.15;39.69
22753;BME280;11543;43.144;24.684;2023-04-06T11:47:43;98307.09;;;13.07;39.49
22753;BME280;11543;43.144;24.684;2023-04-06T11:50:13;98335.91;;;13.21;40.05
22753;BME280;11543;43.144;24.684;2023-04-06T11:52:40;98341.88;;;13.31;39.89
22753;BME280;11543;43.144;24.684;2023-04-06T11:55:16;98320.03;;;13.26;38.97
22753;BME280;11543;43.144;24.684;2023-04-06T11:57:43;98322.13;;;13.16;39.99
22753;BME280;11543;43.144;24.684;2023-04-06T12:00:09;98313.06;;;13.17;39.64
22753;BME280;11543;43.144;24.684;2023-04-06T12:02:36;98333.66;;;13.10;39.11
22753;BME280;11543;43.144;24.684;2023-04-06T12:05:03;98326.34;;;12.96;38.42
22753;BME280;11543;43.144;24.684;2023-04-06T12:07:29;98325.13;;;12.84;39.01
22753;BME280;11543;43.144;24.684;2023-04-06T12:09:55;98325.91;;;12.69;38.99
22753;BME280;11543;43.144;24.684;2023-04-06T12:12:21;98304.16;;;12.56;39.57
22753;BME280;11543;43.144;24.684;2023-04-06T12:14:47;98309.91;;;12.53;39.71
22753;BME280;11543;43.144;24.684;2023-04-06T12:17:12;98309.78;;;12.47;41.08
22753;BME280;11543;43.144;24.684;2023-04-06T12:19:38;98307.63;;;12.42;39.42
22753;BME280;11543;43.144;24.684;2023-04-06T12:22:04;98300.81;;;12.54;40.99
22753;BME280;11543;43.144;24.684;2023-04-06T12:24:29;98302.34;;;12.71;40.12
22753;BME280;11543;43.144;24.684;2023-04-06T12:26:55;98304.59;;;12.83;41.67
22753;BME280;11543;43.144;24.684;2023-04-06T12:29:20;98314.97;;;12.71;39.20
22753;BME280;11543;43.144;24.684;2023-04-06T12:31:46;98316.69;;;12.87;40.04
22753;BME280;11543;43.144;24.684;2023-04-06T12:34:12;98324.31;;;12.98;40.25
22753;BME280;11543;43.144;24.684;2023-04-06T12:36:38;98305.44;;;12.83;39.39
22753;BME280;11543;43.144;24.684;2023-04-06T12:39:04;98308.31;;;12.82;39.16
22753;BME280;11543;43.144;24.684;2023-04-06T12:41:30;98302.84;;;12.52;39.20
22753;BME280;11543;43.144;24.684;2023-04-06T12:43:56;98313.31;;;12.47;40.15
22753;BME280;11543;43.144;24.684;2023-04-06T12:46:23;98307.75;;;12.49;40.42
22753;BME280;11543;43.144;24.684;2023-04-06T12:48:48;98322.28;;;12.62;41.98
22753;BME280;11543;43.144;24.684;2023-04-06T12:51:14;98324.38;;;12.52;41.46
22753;BME280;11543;43.144;24.684;2023-04-06T12:53:40;98294.38;;;12.40;41.16
22753;BME280;11543;43.144;24.684;2023-04-06T12:56:16;98312.25;;;12.56;41.51
22753;BME280;11543;43.144;24.684;2023-04-06T12:58:43;98315.41;;;12.60;40.54
22753;BME280;11543;43.144;24.684;2023-04-06T13:01:09;98292.38;;;12.57;41.32